Time;durP1;ratioP1;P1;durP2;ratioP2;P2;SDS_P1;SDS_P2;PMS_P1;PMS_P2;Temp;Humidity;BMP_temperature;BMP_pressure;BME280_temperature;BME280_humidity;BME280_pressure;Samples;Min_cycle;Max_cycle;Signal;HPM_P1;HPM_P2
2022/08/18 00:02:19;;;;;;;36.10;23.10;;;;;;;24.52;100.00;101160.13;5074116;28;20104;-61
2022/08/18 00:04:45;;;;;;;33.97;21.40;;;;;;;24.46;100.00;101162.09;5073172;28;20055;-61
2022/08/18 00:07:13;;;;;;;;;;;;;;;24.38;100.00;101154.47;5077904;28;20032;-62
2022/08/18 00:09:40;;;;;;;31.57;19.80;;;;;;;24.38;100.00;101159.94;5075593;28;19920;-61
2022/08/18 00:12:16;;;;;;;33.17;22.83;;;;;;;24.37;100.00;101165.72;5079334;28;20025;-62
2022/08/18 00:14:43;;;;;;;34.77;22.37;;;;;;;24.34;100.00;101173.38;5076676;28;20075;-62
2022/08/18 00:17:09;;;;;;;36.03;23.37;;;;;;;24.26;100.00;101162.22;5075284;28;20033;-61
2022/08/18 00:19:34;;;;;;;34.25;21.15;;;;;;;24.20;100.00;101173.13;5078031;28;20035;-62
2022/08/18 00:22:00;;;;;;;26.35;16.55;;;;;;;24.14;100.00;101176.19;5080320;28;20037;-62
2022/08/18 00:24:27;;;;;;;32.75;20.75;;;;;;;24.10;100.00;101172.34;5080063;28;20044;-62
2022/08/18 00:26:53;;;;;;;27.13;19.20;;;;;;;24.29;100.00;101169.84;5083750;28;20106;-59
2022/08/18 00:29:19;;;;;;;37.83;23.80;;;;;;;24.29;100.00;101164.38;5078908;28;20028;-60
2022/08/18 00:31:44;;;;;;;32.65;22.10;;;;;;;24.25;100.00;101155.09;5077049;28;20033;-62
2022/08/18 00:34:09;;;;;;;36.28;23.15;;;;;;;24.26;100.00;101154.00;5072727;28;20116;-61
2022/08/18 00:36:35;;;;;;;36.00;22.23;;;;;;;24.07;100.00;101162.81;5073669;28;20511;-62
2022/08/18 00:39:03;;;;;;;33.57;23.50;;;;;;;24.00;100.00;101159.56;5075360;28;20041;-60
2022/08/18 00:41:28;;;;;;;;;;;;;;;23.95;100.00;101154.09;5075047;28;20104;-61
2022/08/18 00:43:57;;;;;;;35.03;21.80;;;;;;;23.95;100.00;101154.91;5074825;28;19916;-61
2022/08/18 00:46:32;;;;;;;34.53;23.43;;;;;;;23.91;100.00;101151.91;5078111;28;20025;-60
2022/08/18 00:48:58;;;;;;;36.40;23.37;;;;;;;23.69;100.00;101156.91;5074490;28;20033;-63
2022/08/18 00:51:38;;;;;;;39.17;24.27;;;;;;;23.65;100.00;101162.09;5080526;28;20040;-59
2022/08/18 00:54:19;;;;;;;30.13;21.67;;;;;;;23.65;100.00;101164.00;5078814;28;20037;-64
2022/08/18 00:56:49;;;;;;;34.37;22.43;;;;;;;23.58;100.00;101165.13;5076506;28;20089;-62
2022/08/18 00:59:46;;;;;;;34.40;23.07;;;;;;;23.59;100.00;101168.66;5077422;28;20100;-62
2022/08/18 01:02:21;;;;;;;32.17;22.17;;;;;;;23.55;100.00;101176.59;5079321;28;20868;-61
2022/08/18 01:04:46;;;;;;;35.23;23.47;;;;;;;23.57;100.00;101188.03;5078827;28;20051;-62
2022/08/18 01:07:33;;;;;;;;;;;;;;;23.48;100.00;101176.03;5078476;28;20040;-60
2022/08/18 01:09:59;;;;;;;36.30;22.80;;;;;;;23.49;100.00;101186.69;5078281;28;19912;-62
2022/08/18 01:12:26;;;;;;;32.70;23.15;;;;;;;23.48;100.00;101192.41;5074960;28;20509;-62
2022/08/18 01:14:53;;;;;;;35.07;23.00;;;;;;;23.45;100.00;101198.41;5074412;28;20059;-62
2022/08/18 01:23:14;;;;;;;39.93;24.67;;;;;;;23.49;100.00;101188.59;5076495;28;20037;-62
2022/08/18 01:25:59;;;;;;;39.40;22.00;;;;;;;23.60;100.00;101187.50;5074875;28;20059;-62
2022/08/18 01:28:26;;;;;;;34.07;23.13;;;;;;;23.56;100.00;101186.41;5077225;28;20045;-62
2022/08/18 01:30:57;;;;;;;30.47;22.03;;;;;;;23.59;100.00;101185.03;5078466;28;20063;-62
2022/08/18 01:33:48;;;;;;;38.33;23.23;;;;;;;23.66;100.00;101168.38;5079879;28;20021;-62
2022/08/18 01:36:18;;;;;;;41.20;22.93;;;;;;;23.73;100.00;101168.88;5078462;28;20047;-62
2022/08/18 01:38:51;;;;;;;61.63;24.50;;;;;;;23.81;100.00;101173.81;5077017;28;20025;-62
2022/08/18 01:41:20;;;;;;;35.47;23.43;;;;;;;23.74;100.00;101186.91;5083635;28;20028;-61
2022/08/18 01:43:47;;;;;;;38.47;23.03;;;;;;;23.71;100.00;101182.84;5079541;28;20056;-62
2022/08/18 01:46:18;;;;;;;38.67;24.67;;;;;;;23.62;100.00;101174.38;5075759;28;20052;-62
2022/08/18 01:48:47;;;;;;;34.57;23.17;;;;;;;23.69;100.00;101182.28;5076051;28;20025;-62
2022/08/18 01:51:15;;;;;;;37.63;25.43;;;;;;;23.66;100.00;101190.22;5073102;28;20093;-62
2022/08/18 01:53:41;;;;;;;33.90;23.00;;;;;;;23.71;100.00;101191.03;5075416;28;20028;-62
2022/08/18 01:56:08;;;;;;;29.85;21.80;;;;;;;23.79;100.00;101192.38;5070229;28;20109;-62
2022/08/18 01:58:35;;;;;;;36.73;23.67;;;;;;;23.83;100.00;101195.34;5075278;28;20136;-62
2022/08/18 02:01:02;;;;;;;40.70;24.73;;;;;;;23.84;100.00;101197.00;5075162;28;20028;-63
2022/08/18 02:03:31;;;;;;;34.97;23.57;;;;;;;23.88;100.00;101198.09;5080864;28;20036;-62
2022/08/18 02:06:01;;;;;;;34.73;22.80;;;;;;;23.80;100.00;101206.84;5072381;28;20040;-63
2022/08/18 02:08:26;;;;;;;39.60;24.50;;;;;;;23.76;100.00;101198.41;5077500;28;20096;-63
2022/08/18 02:10:53;;;;;;;42.00;25.77;;;;;;;23.76;100.00;101199.19;5078443;28;20063;-62
2022/08/18 02:13:18;;;;;;;;;;;;;;;23.70;100.00;101196.75;5078138;28;20032;-61
2022/08/18 02:15:45;;;;;;;45.03;28.03;;;;;;;23.74;100.00;101197.81;5077354;28;19919;-62
2022/08/18 02:18:16;;;;;;;48.80;32.23;;;;;;;23.57;100.00;101193.50;5077813;28;20084;-61
2022/08/18 02:20:42;;;;;;;56.73;33.23;;;;;;;23.41;100.00;101191.88;5078980;28;20096;-62
2022/08/18 02:23:10;;;;;;;51.23;32.57;;;;;;;23.56;100.00;101185.56;5079931;28;20056;-63
2022/08/18 02:25:36;;;;;;;56.13;35.40;;;;;;;23.62;100.00;101193.50;5077303;28;20062;-63
2022/08/18 02:28:04;;;;;;;64.27;37.60;;;;;;;23.26;100.00;101203.63;5074997;28;20051;-64
2022/08/18 02:30:29;;;;;;;59.93;37.97;;;;;;;23.23;100.00;101194.03;5073521;28;20056;-62
2022/08/18 02:33:00;;;;;;;61.77;38.10;;;;;;;23.31;100.00;101188.06;5073703;28;20058;-64
2022/08/18 02:35:26;;;;;;;67.13;39.33;;;;;;;23.37;100.00;101198.97;5072427;28;20029;-62
2022/08/18 02:37:51;;;;;;;74.43;42.15;;;;;;;23.37;100.00;101196.25;5074538;28;20040;-63
2022/08/18 02:40:17;;;;;;;72.20;38.20;;;;;;;23.22;100.00;101203.31;5075179;28;20057;-62
2022/08/18 02:42:45;;;;;;;72.27;40.47;;;;;;;23.29;100.00;101190.22;5076447;28;20270;-66
2022/08/18 02:45:12;;;;;;;66.50;40.80;;;;;;;23.41;100.00;101183.69;5080978;28;20067;-62
2022/08/18 02:47:38;;;;;;;65.70;40.23;;;;;;;23.28;100.00;101196.78;5071962;28;20028;-61
2022/08/18 02:50:05;;;;;;;71.47;40.85;;;;;;;23.16;100.00;101198.94;5078929;28;20060;-63
2022/08/18 02:52:31;;;;;;;64.53;38.03;;;;;;;23.19;100.00;101193.78;5077698;28;20052;-62
2022/08/18 02:54:57;;;;;;;;;;;;;;;23.19;100.00;101192.94;5079530;28;20055;-62
2022/08/18 02:57:23;;;;;;;74.80;41.35;;;;;;;23.20;100.00;101194.56;5075477;28;19923;-62
2022/08/18 02:59:49;;;;;;;72.15;40.70;;;;;;;23.31;100.00;101185.34;5079994;28;20120;-62
2022/08/18 03:02:15;;;;;;;65.85;37.65;;;;;;;23.22;100.00;101202.50;5075705;28;20036;-63
2022/08/18 03:04:40;;;;;;;67.75;38.35;;;;;;;23.26;100.00;101195.44;5077726;28;20041;-62
2022/08/18 03:07:07;;;;;;;61.10;35.75;;;;;;;23.25;100.00;101194.59;5070948;28;20032;-63
2022/08/18 03:09:33;;;;;;;43.20;26.47;;;;;;;23.09;100.00;101190.22;5073756;28;20029;-62
2022/08/18 03:11:59;;;;;;;63.93;36.67;;;;;;;23.20;100.00;101202.75;5071975;28;20033;-62
2022/08/18 03:14:25;;;;;;;49.05;30.75;;;;;;;23.21;100.00;101196.22;5073803;28;20047;-62
2022/08/18 03:16:51;;;;;;;58.15;35.85;;;;;;;23.23;100.00;101196.75;5073135;28;20057;-62
2022/08/18 03:19:16;;;;;;;52.10;30.73;;;;;;;23.18;100.00;101197.59;5075180;28;20064;-63
2022/08/18 03:21:46;;;;;;;53.63;33.17;;;;;;;23.14;100.00;101195.66;5075716;28;20043;-63
2022/08/18 03:24:13;;;;;;;57.00;34.97;;;;;;;23.09;100.00;101188.28;5075591;28;20033;-62
2022/08/18 03:26:43;;;;;;;59.97;36.33;;;;;;;22.98;100.00;101186.66;5075851;28;20031;-62
2022/08/18 03:29:10;;;;;;;58.47;37.07;;;;;;;22.89;100.00;101187.16;5075106;28;20025;-63
2022/08/18 03:31:39;;;;;;;56.53;34.83;;;;;;;22.94;100.00;101186.38;5074951;28;20036;-63
2022/08/18 03:34:07;;;;;;;57.10;34.50;;;;;;;22.90;100.00;101179.81;5077173;28;20029;-62
2022/08/18 03:36:34;;;;;;;64.60;37.27;;;;;;;22.77;100.00;101187.44;5076432;28;20037;-62
2022/08/18 03:39:05;;;;;;;54.93;35.30;;;;;;;22.80;100.00;101188.81;5077074;28;20032;-62
2022/08/18 03:41:31;;;;;;;59.93;37.43;;;;;;;22.68;100.00;101191.78;5075288;28;20032;-62
2022/08/18 03:43:57;;;;;;;;;;;;;;;22.60;100.00;101200.47;5074449;28;20053;-62
2022/08/18 03:46:23;;;;;;;58.80;36.63;;;;;;;22.39;100.00;101203.09;5072996;28;19912;-62
2022/08/18 03:48:52;;;;;;;68.47;37.90;;;;;;;22.56;100.00;101204.81;5071942;28;20033;-62
2022/08/18 03:51:23;;;;;;;62.00;37.30;;;;;;;22.38;100.00;101201.47;5076100;28;20032;-63
2022/08/18 03:53:49;;;;;;;59.07;36.77;;;;;;;22.65;100.00;101197.78;5073157;28;20101;-62
2022/08/18 03:56:18;;;;;;;61.40;35.63;;;;;;;22.49;100.00;101197.72;5074559;28;20044;-62
2022/08/18 03:58:46;;;;;;;64.50;38.07;;;;;;;22.53;100.00;101197.19;5072422;28;20103;-63
2022/08/18 04:01:21;;;;;;;61.40;35.93;;;;;;;22.47;100.00;101194.44;5076532;28;20032;-62
2022/08/18 04:03:55;;;;;;;56.47;35.33;;;;;;;22.52;100.00;101195.53;5069806;28;20041;-63
2022/08/18 04:06:31;;;;;;;62.97;35.87;;;;;;;22.62;100.00;101203.75;5075206;28;20033;-63
2022/08/18 04:08:59;;;;;;;51.90;29.57;;;;;;;22.65;100.00;101205.94;5072521;28;20037;-63
2022/08/18 04:11:27;;;;;;;50.27;30.50;;;;;;;22.74;100.00;101204.31;5072461;28;20035;-63
2022/08/18 04:13:56;;;;;;;61.97;36.33;;;;;;;22.60;100.00;101211.34;5076237;28;20083;-62
2022/08/18 04:16:22;;;;;;;51.90;29.87;;;;;;;22.68;100.00;101210.84;5081373;28;20108;-63
2022/08/18 04:18:49;;;;;;;55.13;34.53;;;;;;;22.74;100.00;101211.69;5075413;28;20090;-62
2022/08/18 04:21:16;;;;;;;65.83;36.70;;;;;;;22.70;100.00;101205.97;5074247;28;20104;-62
2022/08/18 04:23:43;;;;;;;65.97;39.33;;;;;;;22.67;100.00;101203.78;5069169;28;20032;-63
2022/08/18 04:26:11;;;;;;;74.70;43.07;;;;;;;22.72;100.00;101206.50;5071949;28;20044;-62
2022/08/18 04:28:37;;;;;;;62.57;36.60;;;;;;;22.59;100.00;101209.72;5071450;28;20041;-63
2022/08/18 04:31:11;;;;;;;67.93;37.87;;;;;;;22.45;100.00;101215.66;5072697;28;20033;-62
2022/08/18 04:33:38;;;;;;;67.70;40.87;;;;;;;22.60;100.00;101211.34;5071323;28;20043;-63
2022/08/18 04:36:13;;;;;;;70.40;43.03;;;;;;;22.64;100.00;101220.66;5073892;28;20032;-63
2022/08/18 04:38:43;;;;;;;73.17;39.53;;;;;;;22.62;100.00;101211.94;5075047;28;20049;-62
2022/08/18 04:41:13;;;;;;;59.97;36.07;;;;;;;22.64;100.00;101212.50;5075945;28;20025;-63
2022/08/18 04:43:40;;;;;;;67.77;39.87;;;;;;;22.62;100.00;101214.66;5070818;28;20055;-63
2022/08/18 04:46:05;;;;;;;;;;;;;;;22.72;100.00;101203.78;5077624;28;20024;-63
2022/08/18 04:48:34;;;;;;;57.33;33.90;;;;;;;22.77;100.00;101206.50;5078950;28;19958;-63
2022/08/18 04:51:06;;;;;;;68.77;39.87;;;;;;;22.80;100.00;101210.63;5080306;28;20056;-64
2022/08/18 04:53:46;;;;;;;71.10;42.23;;;;;;;22.76;100.00;101215.78;5077990;28;20033;-63
2022/08/18 04:56:24;;;;;;;60.17;37.63;;;;;;;22.79;100.00;101222.59;5076761;28;20060;-63
2022/08/18 04:58:52;;;;;;;60.77;37.17;;;;;;;22.66;100.00;101218.50;5084361;28;20077;-63
2022/08/18 05:01:21;;;;;;;50.17;32.83;;;;;;;22.52;100.00;101217.34;5074769;28;20136;-62
2022/08/18 05:03:49;;;;;;;64.10;38.70;;;;;;;22.76;100.00;101215.78;5072583;28;20033;-63
2022/08/18 05:06:16;;;;;;;69.83;37.60;;;;;;;22.67;100.00;101217.41;5072674;28;20063;-62
2022/08/18 05:08:42;;;;;;;53.03;32.67;;;;;;;22.74;100.00;101223.41;5072718;28;20057;-63
2022/08/18 05:11:08;;;;;;;51.00;32.53;;;;;;;22.78;100.00;101224.50;5076226;28;20036;-63
2022/08/18 05:13:34;;;;;;;;;;;;;;;22.61;100.00;101223.94;5077461;28;20037;-62
2022/08/18 05:16:03;;;;;;;58.27;33.13;;;;;;;22.69;100.00;101225.28;5077848;28;19951;-63
2022/08/18 05:18:38;;;;;;;53.10;31.13;;;;;;;22.73;100.00;101220.97;5075304;28;20041;-62
2022/08/18 05:21:03;;;;;;;54.47;34.37;;;;;;;22.46;100.00;101225.50;5080246;28;20097;-63
2022/08/18 05:23:30;;;;;;;;;;;;;;;22.62;100.00;101215.47;5075577;28;20085;-63
2022/08/18 05:26:02;;;;;;;62.43;34.93;;;;;;;22.81;100.00;101222.31;5078462;28;19912;-63
2022/08/18 05:28:33;;;;;;;56.17;33.50;;;;;;;22.64;100.00;101220.66;5077959;28;20041;-63
2022/08/18 05:31:05;;;;;;;68.37;41.27;;;;;;;22.77;100.00;101225.59;5079723;28;20039;-62
2022/08/18 05:33:30;;;;;;;66.43;35.00;;;;;;;22.65;100.00;101222.31;5076951;28;20025;-62
2022/08/18 05:36:03;;;;;;;57.38;33.97;;;;;;;22.71;100.00;101221.22;5084049;28;20044;-63
2022/08/18 05:38:41;;;;;;;57.70;34.43;;;;;;;22.68;100.00;101223.66;5079999;28;20037;-62
2022/08/18 05:41:19;;;;;;;57.50;34.00;;;;;;;22.66;100.00;101225.84;5082240;28;20091;-62
2022/08/18 05:43:47;;;;;;;61.37;35.13;;;;;;;22.71;100.00;101220.38;5078287;28;20048;-63
2022/08/18 05:46:13;;;;;;;113.23;66.53;;;;;;;22.78;100.00;101232.69;5076386;28;20037;-64
2022/08/18 05:48:39;;;;;;;62.80;36.38;;;;;;;22.54;100.00;101231.50;5075808;28;20028;-63
2022/08/18 05:51:22;;;;;;;67.15;40.03;;;;;;;22.92;100.00;101240.34;5082047;28;20104;-62
2022/08/18 05:56:47;;;;;;;59.63;32.37;;;;;;;23.04;100.00;101227.28;5081491;28;20040;-63
2022/08/18 05:59:21;;;;;;;45.27;26.13;;;;;;;23.01;100.00;101216.91;5078486;28;20061;-64
2022/08/18 06:02:00;;;;;;;197.30;117.30;;;;;;;23.14;100.00;101217.50;5079233;28;20210;-63
2022/08/18 06:04:48;;;;;;;85.27;47.23;;;;;;;23.19;100.00;101215.59;5078888;28;20047;-63
2022/08/18 06:07:23;;;;;;;48.92;28.00;;;;;;;23.23;100.00;101218.56;5075180;28;20032;-63
2022/08/18 06:09:53;;;;;;;19.77;11.90;;;;;;;23.23;100.00;101220.50;5081575;28;20028;-63
2022/08/18 06:12:23;;;;;;;24.80;16.17;;;;;;;23.33;100.00;101215.06;5075093;28;20033;-61
2022/08/18 06:14:51;;;;;;;45.23;29.37;;;;;;;23.31;100.00;101220.81;5077538;28;20096;-64
2022/08/18 06:17:29;;;;;;;54.00;31.60;;;;;;;23.53;100.00;101216.16;5075587;28;20043;-63
2022/08/18 06:20:13;;;;;;;33.43;18.47;;;;;;;23.43;100.00;101220.53;5074221;28;20096;-63
2022/08/18 06:23:08;;;;;;;24.40;15.33;;;;;;;23.47;100.00;101223.53;5075422;28;20052;-63
2022/08/18 06:26:08;;;;;;;37.60;24.33;;;;;;;23.60;100.00;101219.41;5071231;28;20063;-50
2022/08/18 06:28:54;;;;;;;41.73;22.63;;;;;;;23.67;100.00;101227.34;5072293;28;20032;-46
2022/08/18 06:31:39;;;;;;;37.67;20.67;;;;;;;23.74;100.00;101231.41;5075016;28;20021;-47
2022/08/18 06:34:33;;;;;;;42.83;26.10;;;;;;;23.80;100.00;101228.69;5075990;28;20092;-47
2022/08/18 06:37:11;;;;;;;38.37;22.53;;;;;;;23.83;100.00;101237.16;5077541;28;20113;-46
2022/08/18 06:39:49;;;;;;;38.93;21.77;;;;;;;23.88;100.00;101239.06;5077363;28;20100;-49
2022/08/18 06:42:24;;;;;;;31.27;20.90;;;;;;;23.99;100.00;101243.41;5071768;28;20060;-48
2022/08/18 06:44:57;;;;;;;30.10;19.73;;;;;;;24.07;100.00;101252.97;5071107;28;20041;-49
2022/08/18 06:47:45;;;;;;;25.40;15.83;;;;;;;24.01;100.00;101251.31;5073652;28;20071;-46
2022/08/18 06:50:35;;;;;;;43.83;20.97;;;;;;;24.09;100.00;101253.50;5076662;28;20028;-48
2022/08/18 06:53:05;;;;;;;36.63;20.63;;;;;;;24.24;100.00;101260.03;5073401;28;20037;-50
2022/08/18 06:55:37;;;;;;;27.67;19.50;;;;;;;24.19;100.00;101269.88;5075607;28;20050;-47
2022/08/18 06:58:17;;;;;;;34.67;20.97;;;;;;;24.16;100.00;101264.16;5073159;28;20025;-51
2022/08/18 07:00:51;;;;;;;31.67;19.00;;;;;;;24.36;100.00;101274.19;5075573;28;20029;-51
2022/08/18 07:03:20;;;;;;;30.30;17.27;;;;;;;24.54;100.00;101272.75;5081201;28;20039;-46
2022/08/18 07:06:03;;;;;;;26.20;16.70;;;;;;;24.60;100.00;101265.34;5078749;28;20036;-50
2022/08/18 07:08:41;;;;;;;26.37;16.23;;;;;;;24.61;100.00;101269.72;5077131;28;20035;-50
2022/08/18 07:11:19;;;;;;;26.37;16.97;;;;;;;24.61;100.00;101265.09;5075864;28;20034;-47
2022/08/18 07:13:47;;;;;;;22.47;15.50;;;;;;;24.65;100.00;101270.78;5076475;28;20036;-48
2022/08/18 07:16:33;;;;;;;27.87;16.37;;;;;;;24.81;100.00;101268.03;5076689;28;20036;-50
2022/08/18 07:19:07;;;;;;;21.92;12.60;;;;;;;24.71;100.00;101266.13;5072961;28;20037;-52
2022/08/18 07:21:36;;;;;;;14.57;8.30;;;;;;;24.73;100.00;101264.75;5092038;28;20040;-51
2022/08/18 07:24:27;;;;;;;15.63;11.03;;;;;;;24.92;100.00;101267.69;5076487;28;20032;-52
2022/08/18 07:27:07;;;;;;;18.67;12.43;;;;;;;24.98;100.00;101279.41;5077738;28;20047;-53
2022/08/18 07:30:07;;;;;;;15.17;9.13;;;;;;;25.12;100.00;101279.59;5078195;28;20029;-50
2022/08/18 07:32:45;;;;;;;13.43;7.80;;;;;;;25.15;100.00;101283.72;5078305;28;20073;-50
2022/08/18 07:35:14;;;;;;;15.10;7.80;;;;;;;25.23;100.00;101274.88;5081733;28;20041;-48
2022/08/18 07:38:01;;;;;;;16.60;9.40;;;;;;;25.11;100.00;101277.97;5079410;28;20033;-48
2022/08/18 07:40:43;;;;;;;8.70;4.95;;;;;;;25.41;100.00;101278.84;5075672;28;20259;-53
2022/08/18 07:43:18;;;;;;;9.73;5.83;;;;;;;25.58;100.00;101278.47;5071934;28;20063;-48
2022/08/18 07:45:46;;;;;;;18.95;9.30;;;;;;;25.46;100.00;101289.75;5073888;28;20024;-50
2022/08/18 07:48:13;;;;;;;11.73;6.00;;;;;;;25.84;100.00;101291.13;5074946;28;20101;-54
2022/08/18 07:50:51;;;;;;;15.97;6.30;;;;;;;26.19;100.00;101289.19;5075356;28;20071;-49
2022/08/18 07:53:40;;;;;;;11.30;7.30;;;;;;;26.32;100.00;101287.66;5076375;28;20037;-48
2022/08/18 07:56:18;;;;;;;10.90;5.80;;;;;;;26.29;100.00;101291.78;5076037;28;20033;-50
2022/08/18 07:59:00;;;;;;;11.27;6.87;;;;;;;26.11;100.00;101300.72;5069798;28;20070;-49
2022/08/18 08:01:31;;;;;;;9.93;5.57;;;;;;;26.36;100.00;101291.44;5075382;28;20040;-48
2022/08/18 08:04:22;;;;;;;7.63;4.67;;;;;;;26.60;100.00;101293.34;5076014;28;20039;-51
2022/08/18 08:06:56;;;;;;;6.50;5.20;;;;;;;26.77;100.00;101299.16;5083561;28;20032;-46
2022/08/18 08:09:25;;;;;;;11.87;5.80;;;;;;;27.09;100.00;101287.78;5080048;28;20100;-47
2022/08/18 08:12:02;;;;;;;6.93;5.00;;;;;;;27.20;100.00;101289.25;5078263;28;20025;-47
2022/08/18 08:14:34;;;;;;;8.67;4.83;;;;;;;27.11;100.00;101285.56;5076039;28;20047;-52
2022/08/18 08:17:31;;;;;;;15.73;6.93;;;;;;;26.97;100.00;101291.78;5076379;28;20058;-48
2022/08/18 08:20:21;;;;;;;10.27;6.10;;;;;;;26.85;100.00;101283.19;5068206;28;20032;-50
2022/08/18 08:22:58;;;;;;;8.07;6.00;;;;;;;26.66;100.00;101286.69;5077067;28;20039;-47
2022/08/18 08:25:54;;;;;;;8.43;5.97;;;;;;;26.85;100.00;101278.50;5076027;28;20029;-50
2022/08/18 08:28:39;;;;;;;8.50;4.10;;;;;;;26.81;100.00;101288.41;5076977;28;20038;-49
2022/08/18 08:31:14;;;;;;;5.17;3.77;;;;;;;27.00;100.00;101284.88;5081953;28;20095;-50
2022/08/18 08:33:46;;;;;;;9.18;3.97;;;;;;;27.40;100.00;101281.81;5076197;28;20048;-48
2022/08/18 08:36:22;;;;;;;6.83;4.17;;;;;;;27.65;100.00;101279.78;5075853;28;20059;-48
2022/08/18 08:38:56;;;;;;;7.00;4.00;;;;;;;27.89;100.00;101288.69;5076104;28;20033;-47
2022/08/18 08:41:38;;;;;;;8.50;3.83;;;;;;;27.97;100.00;101289.94;5077954;28;20029;-49
2022/08/18 08:44:13;;;;;;;5.38;3.17;;;;;;;28.29;100.00;101291.00;5085375;28;20055;-47
2022/08/18 08:47:06;;;;;;;11.07;5.00;;;;;;;28.22;100.00;101296.09;5083915;28;20047;-52
2022/08/18 08:49:46;;;;;;;9.30;4.13;;;;;;;28.57;100.00;101298.41;5079163;28;20044;-50
2022/08/18 08:52:19;;;;;;;5.90;3.50;;;;;;;28.52;100.00;101293.84;5073781;28;20017;-51
2022/08/18 08:54:54;;;;;;;5.90;3.00;;;;;;;28.34;100.00;101292.81;5077493;28;20055;-50
2022/08/18 08:57:31;;;;;;;5.40;3.28;;;;;;;28.43;100.00;101299.25;5076788;28;20092;-51
2022/08/18 09:00:01;;;;;;;10.60;4.63;;;;;;;28.67;100.00;101298.22;5080105;28;20037;-54
2022/08/18 09:02:31;;;;;;;12.77;4.05;;;;;;;28.73;100.00;101296.97;5079683;28;20036;-51
2022/08/18 09:05:05;;;;;;;7.38;4.68;;;;;;;28.81;100.00;101295.47;5075097;28;20033;-51
2022/08/18 09:07:40;;;;;;;11.18;4.93;;;;;;;28.44;100.00;101298.13;5079513;28;20052;-50
2022/08/18 09:10:30;;;;;;;7.22;3.88;;;;;;;28.69;100.00;101300.66;5081370;28;20034;-48
2022/08/18 09:13:21;;;;;;;6.63;3.70;;;;;;;28.35;100.00;101308.19;5080427;28;20096;-50
2022/08/18 09:16:06;;;;;;;9.55;4.45;;;;;;;28.93;100.00;101308.69;5078862;28;20121;-52
2022/08/18 09:18:45;;;;;;;6.97;4.15;;;;;;;29.54;100.00;101304.81;5078714;28;20033;-47
2022/08/18 09:21:30;;;;;;;6.57;3.72;;;;;;;30.18;100.00;101307.28;5081187;28;20100;-50
2022/08/18 09:24:09;;;;;;;6.32;3.30;;;;;;;30.72;100.00;101313.81;5074597;28;20041;-48
2022/08/18 09:26:48;;;;;;;6.10;3.22;;;;;;;31.37;100.00;101315.97;5076391;28;20033;-50
2022/08/18 09:29:16;;;;;;;7.68;2.85;;;;;;;31.61;100.00;101316.28;5078796;28;20082;-54
2022/08/18 09:31:44;;;;;;;5.32;2.40;;;;;;;32.19;100.00;101313.19;5080405;28;20029;-50
2022/08/18 09:34:50;;;;;;;7.25;2.70;;;;;;;32.35;100.00;101320.97;5080131;28;20085;-50
2022/08/18 09:37:33;;;;;;;6.30;2.90;;;;;;;31.93;100.00;101309.72;5076916;28;20053;-51
2022/08/18 09:43:26;;;;;;;5.65;3.05;;;;;;;32.10;100.00;101326.25;5077959;28;20028;-48
2022/08/18 09:45:59;;;;;;;4.75;2.90;;;;;;;32.97;100.00;101324.16;5081568;28;20036;-49
2022/08/18 09:48:31;;;;;;;9.13;3.25;;;;;;;32.63;100.00;101317.72;5080594;28;20028;-49
2022/08/18 09:51:33;;;;;;;4.45;3.28;;;;;;;32.10;100.00;101309.66;5084764;28;20028;-48
2022/08/18 09:54:30;;;;;;;4.60;2.65;;;;;;;31.73;100.00;101309.25;5079516;28;20054;-50
2022/08/18 09:57:08;;;;;;;6.63;4.03;;;;;;;31.41;100.00;101295.66;5077849;28;20051;-46
2022/08/18 09:59:36;;;;;;;7.63;3.45;;;;;;;31.28;100.00;101296.66;5073328;28;20044;-47
2022/08/18 10:02:23;;;;;;;6.93;3.67;;;;;;;31.47;100.00;101299.06;5075283;28;20096;-52
2022/08/18 10:04:52;;;;;;;5.70;2.80;;;;;;;33.14;100.00;101305.78;5078395;28;20029;-47
2022/08/18 10:07:32;;;;;;;7.95;3.63;;;;;;;33.91;100.00;101312.84;5078546;28;20021;-49
2022/08/18 10:10:16;;;;;;;4.63;3.30;;;;;;;33.81;100.00;101305.00;5074240;28;20047;-51
2022/08/18 10:13:06;;;;;;;5.57;3.70;;;;;;;33.80;100.00;101312.50;5073797;28;20032;-50
2022/08/18 10:15:41;;;;;;;6.15;3.30;;;;;;;34.14;97.18;101304.94;5075347;28;20032;-50
2022/08/18 10:18:25;;;;;;;5.80;3.10;;;;;;;33.33;100.00;101314.41;5076296;28;20044;-48
2022/08/18 10:21:16;;;;;;;6.30;3.92;;;;;;;34.28;96.59;101306.53;5076459;28;20036;-50
2022/08/18 10:23:52;;;;;;;5.60;3.45;;;;;;;35.97;87.39;101317.31;5081261;28;20040;-49
2022/08/18 10:26:30;;;;;;;8.02;3.78;;;;;;;37.00;81.05;101317.34;5079192;28;20040;-50
2022/08/18 10:29:30;;;;;;;5.28;3.38;;;;;;;37.35;76.17;101320.41;5081329;28;20097;-46
2022/08/18 10:31:56;;;;;;;6.85;3.25;;;;;;;37.82;74.92;101310.13;5074224;28;20037;-46
2022/08/18 10:34:40;;;;;;;6.90;3.78;;;;;;;38.32;69.21;101307.34;5075937;28;20048;-49
2022/08/18 10:37:46;;;;;;;5.90;3.78;;;;;;;37.36;70.19;101302.50;5071623;28;20051;-53
2022/08/18 10:40:19;;;;;;;7.65;3.90;;;;;;;37.86;69.73;101302.59;5069874;28;20048;-50
2022/08/18 10:43:15;;;;;;;4.93;2.97;;;;;;;38.77;66.54;101304.78;5071526;28;20135;-51
2022/08/18 10:45:47;;;;;;;7.40;3.53;;;;;;;39.91;60.51;101294.41;5077637;28;20083;-52
2022/08/18 10:48:21;;;;;;;4.35;3.45;;;;;;;40.56;57.40;101302.44;5075222;28;20089;-51
2022/08/18 10:50:55;;;;;;;4.88;3.00;;;;;;;40.93;57.00;101295.00;5080897;28;20028;-48
2022/08/18 10:53:40;;;;;;;4.90;3.35;;;;;;;40.11;56.25;101285.75;5077227;28;20092;-48
2022/08/18 10:56:24;;;;;;;6.67;3.83;;;;;;;39.54;56.74;101282.09;5081575;28;20036;-52
2022/08/18 10:59:33;;;;;;;5.75;3.70;;;;;;;38.60;59.29;101272.63;5074305;28;20037;-48
2022/08/18 11:02:16;;;;;;;6.32;3.45;;;;;;;37.40;69.03;101287.44;5071430;28;20040;-49
2022/08/18 11:04:48;;;;;;;6.72;2.78;;;;;;;36.35;79.92;101279.69;5071826;28;20032;-49
2022/08/18 11:07:21;;;;;;;6.18;4.40;;;;;;;35.45;82.78;101281.84;5075935;28;20025;-49
2022/08/18 11:09:55;;;;;;;7.22;5.50;;;;;;;34.86;88.10;101275.81;5071120;28;20028;-48
2022/08/18 11:12:55;;;;;;;6.90;4.25;;;;;;;35.21;87.17;101274.41;5075221;28;20091;-46
2022/08/18 11:15:32;;;;;;;6.43;4.80;;;;;;;36.27;81.94;101278.72;5074378;28;20092;-49
2022/08/18 11:18:28;;;;;;;7.38;4.18;;;;;;;38.55;71.75;101287.72;5074162;28;20037;-51
2022/08/18 11:21:32;;;;;;;4.60;3.65;;;;;;;40.39;60.04;101295.53;5070528;28;20037;-52
2022/08/18 11:24:07;;;;;;;9.70;5.47;;;;;;;41.46;52.95;101301.16;5076982;28;20040;-49
2022/08/18 11:26:55;;;;;;;12.35;3.78;;;;;;;42.17;48.90;101298.75;5083398;28;20062;-47
2022/08/18 11:29:28;;;;;;;2.88;2.58;;;;;;;42.95;46.23;101284.84;5076426;28;20033;-53
2022/08/18 11:32:20;;;;;;;3.88;3.03;;;;;;;42.79;41.29;101285.31;5076090;28;20033;-53
2022/08/18 11:35:04;;;;;;;5.32;4.05;;;;;;;41.64;41.98;101281.56;5070576;28;20033;-50
2022/08/18 11:37:54;;;;;;;7.20;3.60;;;;;;;39.53;48.00;101260.91;5069901;28;20097;-49
2022/08/18 11:40:33;;;;;;;6.75;3.95;;;;;;;38.86;52.84;101248.59;5071102;28;20039;-50
2022/08/18 11:43:08;;;;;;;5.97;4.13;;;;;;;39.17;52.77;101249.34;5073262;28;20066;-53
2022/08/18 11:45:51;;;;;;;8.05;4.25;;;;;;;38.37;57.62;101242.78;5076103;28;20067;-49
2022/08/18 11:48:19;;;;;;;7.47;5.60;;;;;;;38.06;60.78;101227.97;5077311;28;20020;-52
2022/08/18 11:51:02;;;;;;;7.55;5.10;;;;;;;37.19;66.14;101232.09;5076605;28;20082;-48
2022/08/18 11:53:31;;;;;;;8.38;4.57;;;;;;;37.31;72.82;101231.13;5075895;28;20051;-48
2022/08/18 11:56:13;;;;;;;8.63;5.60;;;;;;;37.82;66.97;101234.78;5076039;28;20039;-52